createdAt,value
2019-03-06T00:00:07.633Z,1002.25
2019-03-06T00:01:07.646Z,1002.22
2019-03-06T00:02:07.608Z,1002.22
2019-03-06T00:03:07.631Z,1002.23
2019-03-06T00:04:07.591Z,1002.20
2019-03-06T00:05:07.573Z,1002.21
2019-03-06T00:06:16.274Z,1002.29
2019-03-06T00:07:08.560Z,1002.24
2019-03-06T00:08:07.551Z,1002.25
2019-03-06T00:09:07.602Z,1002.28
2019-03-06T00:10:07.532Z,1002.24
2019-03-06T00:11:07.511Z,1002.23
2019-03-06T00:12:07.523Z,1002.29
2019-03-06T00:13:07.491Z,1002.31
2019-03-06T00:14:07.476Z,1002.32
2019-03-06T00:15:07.472Z,1002.31
2019-03-06T00:16:07.529Z,1002.30
2019-03-06T00:17:07.442Z,1002.29
2019-03-06T00:18:07.447Z,1002.24
2019-03-06T00:19:07.418Z,1002.28
2019-03-06T00:20:07.406Z,1002.22
2019-03-06T00:21:07.408Z,1002.19
2019-03-06T00:22:07.385Z,1002.19
2019-03-06T00:23:07.403Z,1002.16
2019-03-06T00:24:07.397Z,1002.19
2019-03-06T00:25:07.356Z,1002.21
2019-03-06T00:26:07.373Z,1002.10
2019-03-06T00:27:07.332Z,1002.12
2019-03-06T00:28:07.317Z,1002.06
2019-03-06T00:29:07.335Z,1002.09
2019-03-06T00:30:07.301Z,1002.03
2019-03-06T00:31:07.315Z,1002.04
2019-03-06T00:32:07.283Z,1002.10
2019-03-06T00:33:07.305Z,1002.05
2019-03-06T00:34:07.253Z,1002.03
2019-03-06T00:35:07.285Z,1002.06
2019-03-06T00:36:07.236Z,1002.09
2019-03-06T00:37:07.226Z,1002.04
2019-03-06T00:38:07.268Z,1002.08
2019-03-06T00:39:07.202Z,1002.07
2019-03-06T00:40:07.186Z,1002.08
2019-03-06T00:41:07.202Z,1002.08
2019-03-06T00:42:07.172Z,1002.09
2019-03-06T00:43:07.169Z,1002.11
2019-03-06T00:44:07.143Z,1002.06
2019-03-06T00:45:07.132Z,1002.08
2019-03-06T00:46:07.184Z,1002.08
2019-03-06T00:47:07.107Z,1002.05
2019-03-06T00:48:07.107Z,1002.10
2019-03-06T00:49:07.087Z,1002.07
2019-03-06T00:50:07.071Z,1002.06
2019-03-06T00:51:07.065Z,1002.06
2019-03-06T00:52:07.085Z,1002.08
2019-03-06T00:53:07.036Z,1002.08
2019-03-06T00:54:07.057Z,1002.13
2019-03-06T00:55:07.027Z,1002.10
2019-03-06T00:56:07.073Z,1002.09
2019-03-06T00:57:06.991Z,1002.09
2019-03-06T00:58:07.010Z,1002.07
2019-03-06T00:59:06.968Z,1002.09
2019-03-06T01:00:06.953Z,1002.10
2019-03-06T01:01:06.957Z,1002.13
2019-03-06T01:02:06.993Z,1002.17
2019-03-06T01:03:06.943Z,1002.10
2019-03-06T01:04:06.917Z,1002.09
2019-03-06T01:05:06.912Z,1002.08
2019-03-06T01:06:06.921Z,1002.07
2019-03-06T01:07:06.889Z,1002.07
2019-03-06T01:08:06.872Z,1002.04
2019-03-06T01:09:06.965Z,1002.00
2019-03-06T01:10:06.863Z,1002.01
2019-03-06T01:11:06.860Z,1001.95
2019-03-06T01:12:06.823Z,1001.98
2019-03-06T01:13:06.809Z,1001.91
2019-03-06T01:14:06.815Z,1001.87
2019-03-06T01:15:06.820Z,1001.82
2019-03-06T01:16:06.843Z,1001.83
2019-03-06T01:17:06.766Z,1001.82
2019-03-06T01:18:06.766Z,1001.80
2019-03-06T01:19:06.747Z,1001.81
2019-03-06T01:20:06.770Z,1001.78
2019-03-06T01:21:06.728Z,1001.81
2019-03-06T01:22:06.729Z,1001.76
2019-03-06T01:23:06.751Z,1001.77
2019-03-06T01:24:06.725Z,1001.78
2019-03-06T01:25:06.683Z,1001.75
2019-03-06T01:26:06.688Z,1001.76
2019-03-06T01:27:06.697Z,1001.73
2019-03-06T01:28:06.678Z,1001.76
2019-03-06T01:29:06.633Z,1001.79
2019-03-06T01:30:06.640Z,1001.77
2019-03-06T01:31:06.682Z,1001.71
2019-03-06T01:32:06.633Z,1001.72
2019-03-06T01:33:06.599Z,1001.68
2019-03-06T01:34:06.612Z,1001.71
2019-03-06T01:35:06.591Z,1001.70
2019-03-06T01:36:06.574Z,1001.71
2019-03-06T01:37:06.755Z,1001.72
2019-03-06T01:38:06.559Z,1001.74
2019-03-06T01:39:06.662Z,1001.73
2019-03-06T01:40:06.663Z,1001.65
2019-03-06T01:41:06.594Z,1001.72
2019-03-06T01:42:06.537Z,1001.70
2019-03-06T01:43:06.518Z,1001.67
2019-03-06T01:44:06.506Z,1001.62
2019-03-06T01:45:06.474Z,1001.64
2019-03-06T01:46:06.474Z,1001.63
2019-03-06T01:47:06.482Z,1001.61
2019-03-06T01:48:06.446Z,1001.57
2019-03-06T01:49:06.454Z,1001.59
2019-03-06T01:50:06.467Z,1001.56
2019-03-06T01:51:06.536Z,1001.57
2019-03-06T01:52:06.439Z,1001.54
2019-03-06T01:53:06.493Z,1001.53
2019-03-06T01:54:06.453Z,1001.53
2019-03-06T01:55:06.461Z,1001.57
2019-03-06T01:56:06.573Z,1001.50
2019-03-06T01:57:06.393Z,1001.46
2019-03-06T01:58:06.387Z,1001.44
2019-03-06T01:59:06.445Z,1001.47
2019-03-06T02:00:06.398Z,1001.42
2019-03-06T02:01:06.351Z,1001.36
2019-03-06T02:02:06.368Z,1001.29
2019-03-06T02:03:06.642Z,1001.30
2019-03-06T02:04:06.363Z,1001.32
2019-03-06T02:05:06.448Z,1001.29
2019-03-06T02:06:06.280Z,1001.29
2019-03-06T02:07:06.380Z,1001.24
2019-03-06T02:08:06.405Z,1001.25
2019-03-06T02:09:06.313Z,1001.25
2019-03-06T02:10:06.222Z,1001.22
2019-03-06T02:11:06.224Z,1001.22
2019-03-06T02:12:06.185Z,1001.22
2019-03-06T02:13:06.202Z,1001.21
2019-03-06T02:14:06.263Z,1001.18
2019-03-06T02:15:06.131Z,1001.16
2019-03-06T02:16:06.218Z,1001.13
2019-03-06T02:17:06.115Z,1001.10
2019-03-06T02:18:06.150Z,1001.09
2019-03-06T02:19:06.138Z,1001.08
2019-03-06T02:20:06.086Z,1001.07
2019-03-06T02:21:06.068Z,1001.06
2019-03-06T02:22:06.109Z,1001.02
2019-03-06T02:23:06.052Z,1001.03
2019-03-06T02:24:06.048Z,1000.99
2019-03-06T02:25:06.088Z,1000.96
2019-03-06T02:26:06.006Z,1000.95
2019-03-06T02:27:06.015Z,1000.93
2019-03-06T02:28:06.025Z,1000.86
2019-03-06T02:29:06.005Z,1000.90
2019-03-06T02:30:05.992Z,1000.89
2019-03-06T02:31:05.948Z,1000.86
2019-03-06T02:32:05.944Z,1000.75
2019-03-06T02:33:05.942Z,1000.79
2019-03-06T02:34:05.917Z,1000.80
2019-03-06T02:35:05.977Z,1000.73
2019-03-06T02:36:05.966Z,1000.76
2019-03-06T02:37:05.942Z,1000.76
2019-03-06T02:38:06.001Z,1000.71
2019-03-06T02:39:05.905Z,1000.70
2019-03-06T02:40:05.861Z,1000.70
2019-03-06T02:41:05.875Z,1000.73
2019-03-06T02:42:05.854Z,1000.69
2019-03-06T02:43:05.864Z,1000.69
2019-03-06T02:44:05.889Z,1000.70
2019-03-06T02:45:05.823Z,1000.66
2019-03-06T02:46:05.792Z,1000.70
2019-03-06T02:47:05.833Z,1000.63
2019-03-06T02:48:05.777Z,1000.60
2019-03-06T02:49:05.796Z,1000.60
2019-03-06T02:50:05.754Z,1000.58
2019-03-06T02:51:05.739Z,1000.65
2019-03-06T02:52:05.733Z,1000.62
2019-03-06T02:53:05.783Z,1000.57
2019-03-06T02:54:05.743Z,1000.59
2019-03-06T02:55:05.695Z,1000.54
2019-03-06T02:56:05.665Z,1000.57
2019-03-06T02:57:05.674Z,1000.58
2019-03-06T02:58:05.688Z,1000.53
2019-03-06T02:59:05.641Z,1000.55
2019-03-06T03:00:05.622Z,1000.57
2019-03-06T03:01:05.644Z,1000.56
2019-03-06T03:02:05.599Z,1000.49
2019-03-06T03:03:05.622Z,1000.50
2019-03-06T03:04:05.592Z,1000.50
2019-03-06T03:05:05.560Z,1000.49
2019-03-06T03:06:05.553Z,1000.52
2019-03-06T03:07:05.602Z,1000.44
2019-03-06T03:08:05.528Z,1000.42
2019-03-06T03:09:05.559Z,1000.39
2019-03-06T03:10:05.564Z,1000.45
2019-03-06T03:11:05.501Z,1000.42
2019-03-06T03:12:05.494Z,1000.46
2019-03-06T03:13:05.605Z,1000.45
2019-03-06T03:14:05.477Z,1000.40
2019-03-06T03:15:05.449Z,1000.41
2019-03-06T03:16:05.486Z,1000.35
2019-03-06T03:17:05.464Z,1000.37
2019-03-06T03:18:05.442Z,1000.33
2019-03-06T03:19:05.471Z,1000.32
2019-03-06T03:20:05.387Z,1000.28
2019-03-06T03:21:05.383Z,1000.26
2019-03-06T03:22:05.378Z,1000.24
2019-03-06T03:23:05.419Z,1000.23
2019-03-06T03:24:05.361Z,1000.16
2019-03-06T03:25:05.350Z,1000.17
2019-03-06T03:26:05.369Z,1000.16
2019-03-06T03:27:05.328Z,1000.15
2019-03-06T03:28:05.300Z,1000.17
2019-03-06T03:29:05.308Z,1000.11
2019-03-06T03:30:05.276Z,1000.06
2019-03-06T03:31:05.338Z,1000.05
2019-03-06T03:32:05.287Z,1000.06
2019-03-06T03:33:05.264Z,999.96
2019-03-06T03:34:05.250Z,999.95
2019-03-06T03:35:05.237Z,999.92
2019-03-06T03:36:05.237Z,999.87
2019-03-06T03:37:05.206Z,999.86
2019-03-06T03:38:05.227Z,999.85
2019-03-06T03:39:05.231Z,999.91
2019-03-06T03:40:05.173Z,999.91
2019-03-06T03:41:05.215Z,999.87
2019-03-06T03:42:05.143Z,999.90
2019-03-06T03:43:05.146Z,999.85
2019-03-06T03:44:05.146Z,999.86
2019-03-06T03:45:05.118Z,999.84
2019-03-06T03:46:05.116Z,999.87
2019-03-06T03:47:05.088Z,999.79
2019-03-06T03:48:05.113Z,999.76
2019-03-06T03:49:05.112Z,999.84
2019-03-06T03:50:05.060Z,999.81
2019-03-06T03:51:05.091Z,999.82
2019-03-06T03:52:05.044Z,999.72
2019-03-06T03:53:05.046Z,999.79
2019-03-06T03:54:05.012Z,999.72
2019-03-06T03:55:05.068Z,999.73
2019-03-06T03:56:04.993Z,999.69
2019-03-06T03:57:05.063Z,999.77
2019-03-06T03:58:05.016Z,999.74
2019-03-06T03:59:04.971Z,999.70
2019-03-06T04:00:04.975Z,999.70
2019-03-06T04:01:04.932Z,999.76
2019-03-06T04:02:04.977Z,999.72
2019-03-06T04:03:04.922Z,999.73
2019-03-06T04:04:04.900Z,999.73
2019-03-06T04:05:04.883Z,999.72
2019-03-06T04:06:04.900Z,999.74
2019-03-06T04:07:04.863Z,999.77
2019-03-06T04:08:04.895Z,999.73
2019-03-06T04:09:04.876Z,999.72
2019-03-06T04:10:04.829Z,999.70
2019-03-06T04:11:04.848Z,999.72
2019-03-06T04:12:04.861Z,999.72
2019-03-06T04:13:04.798Z,999.70
2019-03-06T04:14:04.799Z,999.73
2019-03-06T04:15:04.828Z,999.74
2019-03-06T04:16:04.771Z,999.68
2019-03-06T04:17:04.765Z,999.73
2019-03-06T04:18:04.756Z,999.69
2019-03-06T04:19:04.825Z,999.73
2019-03-06T04:20:04.716Z,999.71
2019-03-06T04:21:04.704Z,999.68
2019-03-06T04:22:04.743Z,999.67
2019-03-06T04:23:04.712Z,999.64
2019-03-06T04:24:04.680Z,999.66
2019-03-06T04:25:04.658Z,999.62
2019-03-06T04:26:04.693Z,999.69
2019-03-06T04:27:04.710Z,999.71
2019-03-06T04:28:04.649Z,999.71
2019-03-06T04:29:04.625Z,999.71
2019-03-06T04:30:04.622Z,999.69
2019-03-06T04:31:04.661Z,999.70
2019-03-06T04:32:04.590Z,999.69
2019-03-06T04:33:04.573Z,999.71
2019-03-06T04:34:04.571Z,999.63
2019-03-06T04:35:04.565Z,999.66
2019-03-06T04:36:04.545Z,999.68
2019-03-06T04:37:04.520Z,999.63
2019-03-06T04:38:04.517Z,999.64
2019-03-06T04:39:04.585Z,999.64
2019-03-06T04:40:04.488Z,999.61
2019-03-06T04:41:04.502Z,999.58
2019-03-06T04:42:04.488Z,999.61
2019-03-06T04:43:04.467Z,999.57
2019-03-06T04:44:04.474Z,999.59
2019-03-06T04:45:04.454Z,999.56
2019-03-06T04:46:04.426Z,999.54
2019-03-06T04:47:04.412Z,999.52
2019-03-06T04:48:04.401Z,999.46
2019-03-06T04:49:04.455Z,999.42
2019-03-06T04:50:04.387Z,999.43
2019-03-06T04:51:04.409Z,999.45
2019-03-06T04:52:04.354Z,999.38
2019-03-06T04:53:04.354Z,999.36
2019-03-06T04:54:04.344Z,999.31
2019-03-06T04:55:04.338Z,999.31
2019-03-06T04:56:04.340Z,999.28
2019-03-06T04:57:04.311Z,999.31
2019-03-06T04:58:04.292Z,999.30
2019-03-06T04:59:04.275Z,999.34
2019-03-06T05:00:04.323Z,999.33
2019-03-06T05:01:04.262Z,999.27
2019-03-06T05:02:04.277Z,999.33
2019-03-06T05:03:04.242Z,999.26
2019-03-06T05:04:04.225Z,999.29
2019-03-06T05:05:04.209Z,999.21
2019-03-06T05:06:04.203Z,999.20
2019-03-06T05:07:04.230Z,999.17
2019-03-06T05:08:05.731Z,999.19
2019-03-06T05:09:04.185Z,999.20
2019-03-06T05:10:04.170Z,999.20
2019-03-06T05:11:04.157Z,999.16
2019-03-06T05:12:04.137Z,999.20
2019-03-06T05:13:04.191Z,999.16
2019-03-06T05:14:04.128Z,999.14
2019-03-06T05:15:04.116Z,999.21
2019-03-06T05:16:04.090Z,999.16
2019-03-06T05:17:04.073Z,999.22
2019-03-06T05:18:04.080Z,999.11
2019-03-06T05:19:04.073Z,999.13
2019-03-06T05:20:04.055Z,999.04
2019-03-06T05:21:04.093Z,999.01
2019-03-06T05:22:04.032Z,999.04
2019-03-06T05:23:04.008Z,999.02
2019-03-06T05:24:04.009Z,999.01
2019-03-06T05:25:04.009Z,998.96
2019-03-06T05:26:03.983Z,998.99
2019-03-06T05:27:04.041Z,998.94
2019-03-06T05:28:03.952Z,998.87
2019-03-06T05:29:03.943Z,998.84
2019-03-06T05:30:03.931Z,998.76
2019-03-06T05:31:03.949Z,998.74
2019-03-06T05:32:03.937Z,998.75
2019-03-06T05:33:03.940Z,998.66
2019-03-06T05:34:03.886Z,998.68
2019-03-06T05:35:04.044Z,998.63
2019-03-06T05:36:03.869Z,998.68
2019-03-06T05:37:03.857Z,998.63
2019-03-06T05:38:03.949Z,998.57
2019-03-06T05:39:03.831Z,998.55
2019-03-06T05:40:03.822Z,998.57
2019-03-06T05:41:03.814Z,998.58
2019-03-06T05:42:03.851Z,998.57
2019-03-06T05:43:03.794Z,998.58
2019-03-06T05:44:03.796Z,998.61
2019-03-06T05:45:03.790Z,998.63
2019-03-06T05:46:03.758Z,998.59
2019-03-06T05:47:03.751Z,998.56
2019-03-06T05:48:03.772Z,998.50
2019-03-06T05:49:03.717Z,998.48
2019-03-06T05:50:03.744Z,998.45
2019-03-06T05:51:03.696Z,998.44
2019-03-06T05:52:03.684Z,998.41
2019-03-06T05:53:03.672Z,998.38
2019-03-06T05:54:03.672Z,998.38
2019-03-06T05:55:03.741Z,998.35
2019-03-06T05:56:03.651Z,998.35
2019-03-06T05:57:03.637Z,998.34
2019-03-06T05:58:03.634Z,998.31
2019-03-06T05:59:03.626Z,998.25
2019-03-06T06:00:03.608Z,998.22
2019-03-06T06:01:03.599Z,998.28
2019-03-06T06:02:03.581Z,998.19
2019-03-06T06:03:03.588Z,998.24
2019-03-06T06:04:03.562Z,998.19
2019-03-06T06:05:03.555Z,998.18
2019-03-06T06:06:03.562Z,998.16
2019-03-06T06:07:06.907Z,998.16
2019-03-06T06:08:03.495Z,998.17
2019-03-06T06:09:03.484Z,998.16
2019-03-06T06:10:03.516Z,998.12
2019-03-06T06:11:03.467Z,998.12
2019-03-06T06:12:03.454Z,998.09
2019-03-06T06:13:03.505Z,998.04
2019-03-06T06:14:03.470Z,998.05
2019-03-06T06:15:03.418Z,998.03
2019-03-06T06:16:03.407Z,998.05
2019-03-06T06:17:03.397Z,998.08
2019-03-06T06:18:03.441Z,998.05
2019-03-06T06:19:03.373Z,998.03
2019-03-06T06:20:03.361Z,997.94
2019-03-06T06:21:03.368Z,997.93
2019-03-06T06:22:03.339Z,997.94
2019-03-06T06:23:03.330Z,997.90
2019-03-06T06:24:03.375Z,997.94
2019-03-06T06:25:03.310Z,997.88
2019-03-06T06:26:03.294Z,997.86
2019-03-06T06:27:03.287Z,997.85
2019-03-06T06:28:03.272Z,997.87
2019-03-06T06:29:03.287Z,997.87
2019-03-06T06:30:03.270Z,997.87
2019-03-06T06:31:03.243Z,997.91
2019-03-06T06:32:03.225Z,997.87
2019-03-06T06:33:03.230Z,997.83
2019-03-06T06:34:03.205Z,997.84
2019-03-06T06:35:03.213Z,997.81
2019-03-06T06:36:03.183Z,997.86
2019-03-06T06:37:03.208Z,997.80
2019-03-06T06:38:03.157Z,997.70
2019-03-06T06:39:03.149Z,997.73
2019-03-06T06:40:03.138Z,997.78
2019-03-06T06:41:03.136Z,997.78
2019-03-06T06:42:03.115Z,997.77
2019-03-06T06:43:03.162Z,997.73
2019-03-06T06:44:03.096Z,997.68
2019-03-06T06:45:03.083Z,997.72
2019-03-06T06:46:03.070Z,997.66
2019-03-06T06:47:03.056Z,997.65
2019-03-06T06:48:03.047Z,997.60
2019-03-06T06:49:03.655Z,997.57
2019-03-06T06:50:03.032Z,997.57
2019-03-06T06:51:03.010Z,997.54
2019-03-06T06:52:03.003Z,997.56
2019-03-06T06:53:02.991Z,997.54
2019-03-06T06:54:03.000Z,997.56
2019-03-06T06:55:03.022Z,997.55
2019-03-06T06:56:02.959Z,997.56
2019-03-06T06:57:02.948Z,997.52
2019-03-06T06:58:02.935Z,997.50
2019-03-06T06:59:02.948Z,997.47
2019-03-06T07:00:02.913Z,997.51
2019-03-06T07:01:02.938Z,997.50
2019-03-06T07:02:02.946Z,997.46
2019-03-06T07:03:02.881Z,997.46
2019-03-06T07:04:02.865Z,997.42
2019-03-06T07:05:02.887Z,997.42
2019-03-06T07:06:02.848Z,997.40
2019-03-06T07:07:02.866Z,997.40
2019-03-06T07:08:02.822Z,997.42
2019-03-06T07:09:02.810Z,997.40
2019-03-06T07:10:02.798Z,997.40
2019-03-06T07:11:02.801Z,997.38
2019-03-06T07:12:02.783Z,997.40
2019-03-06T07:13:02.815Z,997.37
2019-03-06T07:14:02.752Z,997.30
2019-03-06T07:15:02.744Z,997.32
2019-03-06T07:16:02.751Z,997.27
2019-03-06T07:17:02.736Z,997.28
2019-03-06T07:18:02.708Z,997.29
2019-03-06T07:19:02.744Z,997.24
2019-03-06T07:20:02.687Z,997.13
2019-03-06T07:21:02.680Z,997.20
2019-03-06T07:22:02.676Z,997.19
2019-03-06T07:23:02.684Z,997.12
2019-03-06T07:24:02.681Z,997.14
2019-03-06T07:25:02.632Z,997.14
2019-03-06T07:26:02.620Z,997.11
2019-03-06T07:27:02.612Z,997.10
2019-03-06T07:28:02.615Z,997.07
2019-03-06T07:29:02.589Z,997.04
2019-03-06T07:30:02.596Z,997.09
2019-03-06T07:31:02.566Z,997.04
2019-03-06T07:32:02.554Z,997.06
2019-03-06T07:33:02.542Z,996.99
2019-03-06T07:34:02.547Z,996.98
2019-03-06T07:35:02.524Z,996.99
2019-03-06T07:36:02.551Z,996.92
2019-03-06T07:37:02.495Z,996.91
2019-03-06T07:38:02.486Z,996.90
2019-03-06T07:39:02.495Z,996.87
2019-03-06T07:40:02.482Z,996.90
2019-03-06T07:41:02.462Z,996.91
2019-03-06T07:42:02.488Z,996.87
2019-03-06T07:43:02.430Z,996.91
2019-03-06T07:44:02.417Z,996.89
2019-03-06T07:45:02.420Z,996.86
2019-03-06T07:46:02.397Z,996.83
2019-03-06T07:47:02.410Z,996.83
2019-03-06T07:48:02.413Z,996.84
2019-03-06T07:49:02.365Z,996.85
2019-03-06T07:50:02.352Z,996.87
2019-03-06T07:51:02.350Z,996.88
2019-03-06T07:52:02.329Z,996.93
2019-03-06T07:53:02.334Z,996.91
2019-03-06T07:54:02.338Z,996.92
2019-03-06T07:55:02.296Z,996.97
2019-03-06T07:56:02.283Z,997.01
2019-03-06T07:57:02.277Z,997.01
2019-03-06T07:58:02.276Z,997.00
2019-03-06T07:59:02.250Z,997.08
2019-03-06T08:00:02.268Z,996.97
2019-03-06T08:01:02.227Z,996.99
2019-03-06T08:02:02.217Z,996.97
2019-03-06T08:03:02.232Z,997.00
2019-03-06T08:04:02.207Z,996.97
2019-03-06T08:05:02.184Z,996.99
2019-03-06T08:06:02.207Z,996.92
2019-03-06T08:07:02.161Z,996.90
2019-03-06T08:08:02.151Z,996.91
2019-03-06T08:09:02.153Z,996.89
2019-03-06T08:10:02.140Z,996.85
2019-03-06T08:11:02.129Z,996.80
2019-03-06T08:12:02.130Z,996.78
2019-03-06T08:13:02.099Z,996.87
2019-03-06T08:14:02.083Z,996.84
2019-03-06T08:15:02.072Z,996.73
2019-03-06T08:16:02.059Z,996.73
2019-03-06T08:17:02.063Z,996.71
2019-03-06T08:18:02.067Z,996.74
2019-03-06T08:19:02.025Z,996.74
2019-03-06T08:20:02.037Z,996.72
2019-03-06T08:21:02.017Z,996.69
2019-03-06T08:22:01.994Z,996.66
2019-03-06T08:23:01.981Z,996.70
2019-03-06T08:24:02.005Z,996.70
2019-03-06T08:25:01.960Z,996.67
2019-03-06T08:26:01.961Z,996.58
2019-03-06T08:27:01.947Z,996.52
2019-03-06T08:28:01.926Z,996.51
2019-03-06T08:29:01.915Z,996.51
2019-03-06T08:30:01.958Z,996.42
2019-03-06T08:31:01.891Z,996.39
2019-03-06T08:32:01.908Z,996.41
2019-03-06T08:33:01.870Z,996.28
2019-03-06T08:34:01.858Z,996.25
2019-03-06T08:35:01.847Z,996.19
2019-03-06T08:36:01.865Z,996.12
2019-03-06T08:37:01.826Z,996.18
2019-03-06T08:38:01.827Z,996.08
2019-03-06T08:39:01.803Z,996.20
2019-03-06T08:40:01.798Z,996.11
2019-03-06T08:41:04.623Z,996.13
2019-03-06T08:42:01.797Z,996.10
2019-03-06T08:43:01.772Z,996.10
2019-03-06T08:44:01.747Z,996.15
2019-03-06T08:45:01.740Z,996.11
2019-03-06T08:46:01.728Z,996.06
2019-03-06T08:47:01.711Z,996.11
2019-03-06T08:48:01.703Z,996.08
2019-03-06T08:49:01.754Z,996.09
2019-03-06T08:50:01.679Z,996.09
2019-03-06T08:51:01.670Z,996.02
2019-03-06T08:52:01.682Z,996.10
2019-03-06T08:53:01.650Z,996.01
2019-03-06T08:54:01.655Z,995.92
2019-03-06T08:55:01.625Z,995.90
2019-03-06T08:56:01.665Z,995.85
2019-03-06T08:57:01.601Z,995.89
2019-03-06T08:58:01.591Z,995.93
2019-03-06T08:59:01.579Z,995.94
2019-03-06T09:00:01.582Z,995.96
2019-03-06T09:01:01.561Z,996.07
2019-03-06T09:02:01.640Z,996.02
2019-03-06T09:03:01.538Z,995.92
2019-03-06T09:04:01.527Z,995.99
2019-03-06T09:05:01.513Z,995.92
2019-03-06T09:06:01.518Z,995.85
2019-03-06T09:07:01.493Z,995.82
2019-03-06T09:08:01.506Z,995.83
2019-03-06T09:09:02.305Z,995.86
2019-03-06T09:10:01.458Z,995.86
2019-03-06T09:11:03.194Z,995.86
2019-03-06T09:12:01.451Z,995.89
2019-03-06T09:13:01.483Z,995.89
2019-03-06T09:14:01.444Z,995.88
2019-03-06T09:15:01.401Z,995.81
2019-03-06T09:16:01.389Z,995.86
2019-03-06T09:17:01.377Z,995.86
2019-03-06T09:18:08.796Z,995.78
2019-03-06T09:19:02.354Z,995.79
2019-03-06T09:20:01.377Z,995.73
2019-03-06T09:21:01.347Z,995.69
2019-03-06T09:22:01.323Z,995.66
2019-03-06T09:23:01.312Z,995.69
2019-03-06T09:24:01.313Z,995.62
2019-03-06T09:25:01.289Z,995.58
2019-03-06T09:26:01.309Z,995.54
2019-03-06T09:27:01.270Z,995.63
2019-03-06T09:28:01.253Z,995.55
2019-03-06T09:29:01.594Z,995.49
2019-03-06T09:30:01.232Z,995.52
2019-03-06T09:31:01.223Z,995.48
2019-03-06T09:32:01.251Z,995.47
2019-03-06T09:33:01.205Z,995.51
2019-03-06T09:34:01.204Z,995.47
2019-03-06T09:35:01.179Z,995.43
2019-03-06T09:36:01.166Z,995.41
2019-03-06T09:37:01.153Z,995.42
2019-03-06T09:38:01.176Z,995.34
2019-03-06T09:39:01.134Z,995.38
2019-03-06T09:40:01.131Z,995.35
2019-03-06T09:41:01.126Z,995.35
2019-03-06T09:42:01.101Z,995.27
2019-03-06T09:43:01.084Z,995.25
2019-03-06T09:44:01.129Z,995.22
2019-03-06T09:45:01.083Z,995.23
2019-03-06T09:46:01.067Z,995.23
2019-03-06T09:47:01.041Z,995.11
2019-03-06T09:48:01.031Z,995.15
2019-03-06T09:49:01.019Z,995.14
2019-03-06T09:50:01.030Z,995.08
2019-03-06T09:51:01.011Z,995.08
2019-03-06T09:52:00.989Z,995.03
2019-03-06T09:53:00.978Z,995.05
2019-03-06T09:54:00.984Z,995.03
2019-03-06T09:55:00.956Z,995.05
2019-03-06T09:56:00.979Z,994.99
2019-03-06T09:57:00.950Z,994.98
2019-03-06T09:58:00.922Z,994.96
2019-03-06T09:59:00.912Z,994.86
2019-03-06T10:00:00.896Z,994.96
2019-03-06T10:01:00.886Z,994.77
2019-03-06T10:02:06.886Z,994.82
2019-03-06T10:03:01.867Z,994.82
2019-03-06T10:04:00.854Z,994.85
2019-03-06T10:05:00.841Z,994.85
2019-03-06T10:06:00.834Z,994.74
2019-03-06T10:07:00.819Z,994.73
2019-03-06T10:08:00.853Z,994.65
2019-03-06T10:09:00.799Z,994.69
2019-03-06T10:10:00.789Z,994.62
2019-03-06T10:11:00.774Z,994.63
2019-03-06T10:12:00.764Z,994.60
2019-03-06T10:13:00.753Z,994.51
2019-03-06T10:14:00.802Z,994.45
2019-03-06T10:15:00.730Z,994.47
2019-03-06T10:16:00.718Z,994.45
2019-03-06T10:17:00.748Z,994.40
2019-03-06T10:18:00.697Z,994.38
2019-03-06T10:19:00.707Z,994.39
2019-03-06T10:20:00.701Z,994.47
2019-03-06T10:21:00.665Z,994.36
2019-03-06T10:22:00.652Z,994.28
2019-03-06T10:23:00.638Z,994.26
2019-03-06T10:24:00.627Z,994.29
2019-03-06T10:25:00.693Z,994.22
2019-03-06T10:26:00.603Z,994.19
2019-03-06T10:27:00.598Z,994.14
2019-03-06T10:28:06.346Z,994.13
2019-03-06T10:29:01.576Z,994.16
2019-03-06T10:30:00.564Z,994.11
2019-03-06T10:31:02.666Z,994.18
2019-03-06T10:32:00.541Z,994.21
2019-03-06T10:33:00.524Z,994.22
2019-03-06T10:34:00.514Z,994.15
2019-03-06T10:35:00.503Z,994.24
2019-03-06T10:36:00.491Z,994.16
2019-03-06T10:37:00.535Z,994.16
2019-03-06T10:38:00.468Z,994.09
2019-03-06T10:39:00.460Z,994.20
2019-03-06T10:40:00.448Z,994.15
2019-03-06T10:41:00.473Z,994.20
2019-03-06T10:42:00.438Z,994.11
2019-03-06T10:43:00.448Z,994.02
2019-03-06T10:44:00.400Z,994.08
2019-03-06T10:45:00.391Z,994.02
2019-03-06T10:46:00.380Z,993.98
2019-03-06T10:47:00.386Z,993.97
2019-03-06T10:48:00.357Z,994.04
2019-03-06T10:49:00.366Z,994.04
2019-03-06T10:50:00.335Z,994.02
2019-03-06T10:51:00.328Z,994.01
2019-03-06T10:52:00.309Z,993.97
2019-03-06T10:53:00.322Z,993.99
2019-03-06T10:54:00.291Z,993.89
2019-03-06T10:55:00.355Z,993.97
2019-03-06T10:56:00.317Z,993.88
2019-03-06T10:57:00.255Z,993.93
2019-03-06T10:58:00.240Z,993.85
2019-03-06T10:59:00.243Z,993.88
2019-03-06T11:00:00.383Z,993.87
2019-03-06T11:01:00.208Z,993.88
2019-03-06T11:02:00.237Z,993.92
2019-03-06T11:03:00.189Z,993.90
2019-03-06T11:04:00.172Z,993.91
2019-03-06T11:05:00.306Z,993.84
2019-03-06T11:06:00.153Z,993.88
2019-03-06T11:07:00.147Z,993.83
2019-03-06T11:08:00.146Z,993.79
2019-03-06T11:09:00.119Z,993.79
2019-03-06T11:10:00.186Z,993.78
2019-03-06T11:11:00.107Z,993.78
2019-03-06T11:12:00.098Z,993.82
2019-03-06T11:13:00.074Z,993.88
2019-03-06T11:14:06.256Z,993.87
2019-03-06T11:15:01.053Z,993.86
2019-03-06T11:16:00.045Z,993.80
2019-03-06T11:17:00.044Z,993.84
2019-03-06T11:18:00.051Z,993.83
2019-03-06T11:19:00.004Z,993.97
2019-03-06T11:19:59.994Z,993.80
2019-03-06T11:20:59.983Z,993.82
2019-03-06T11:21:59.997Z,993.82
2019-03-06T11:22:59.971Z,993.77
2019-03-06T11:23:59.949Z,993.71
2019-03-06T11:24:59.938Z,993.73
2019-03-06T11:26:01.793Z,993.70
2019-03-06T11:26:59.929Z,993.70
2019-03-06T11:27:59.937Z,993.69
2019-03-06T11:28:59.895Z,993.64
2019-03-06T11:29:59.893Z,993.63
2019-03-06T11:30:59.871Z,993.64
2019-03-06T11:31:59.892Z,993.55
2019-03-06T11:32:59.849Z,993.62
2019-03-06T11:33:59.838Z,993.72
2019-03-06T11:34:59.849Z,993.53
2019-03-06T11:35:59.825Z,993.51
2019-03-06T11:36:59.877Z,993.61
2019-03-06T11:37:59.791Z,993.68
2019-03-06T11:38:59.788Z,993.60
2019-03-06T11:39:59.769Z,993.52
2019-03-06T11:40:59.816Z,993.51
2019-03-06T11:41:59.747Z,993.61
2019-03-06T11:42:59.741Z,993.48
2019-03-06T11:43:59.725Z,993.50
2019-03-06T11:44:59.711Z,993.55
2019-03-06T11:46:00.335Z,993.49
2019-03-06T11:46:59.698Z,993.51
2019-03-06T11:47:59.707Z,993.43
2019-03-06T11:48:59.664Z,993.43
2019-03-06T11:49:59.652Z,993.53
2019-03-06T11:50:59.684Z,993.39
2019-03-06T11:51:59.643Z,993.28
2019-03-06T11:52:59.620Z,993.21
2019-03-06T11:53:59.672Z,993.18
2019-03-06T11:55:05.966Z,993.13
2019-03-06T11:56:00.582Z,993.04
2019-03-06T11:56:59.574Z,993.12
2019-03-06T11:57:59.580Z,993.03
2019-03-06T11:58:59.553Z,993.00
2019-03-06T11:59:59.578Z,993.02
2019-03-06T12:00:59.527Z,992.75
2019-03-06T12:01:59.516Z,992.87
2019-03-06T12:02:59.511Z,992.96
2019-03-06T12:03:59.527Z,992.81
2019-03-06T12:04:59.484Z,992.84
2019-03-06T12:05:59.507Z,992.77
2019-03-06T12:06:59.481Z,992.77
2019-03-06T12:07:59.448Z,992.75
2019-03-06T12:08:59.435Z,992.77
2019-03-06T12:09:59.426Z,992.72
2019-03-06T12:10:59.415Z,992.69
2019-03-06T12:11:59.443Z,992.64
2019-03-06T12:12:59.412Z,992.63
2019-03-06T12:13:59.382Z,992.65
2019-03-06T12:14:59.370Z,992.61
2019-03-06T12:15:59.358Z,992.56
2019-03-06T12:16:59.347Z,992.61
2019-03-06T12:17:59.380Z,992.57
2019-03-06T12:18:59.325Z,992.49
2019-03-06T12:20:07.890Z,992.47
2019-03-06T12:21:00.300Z,992.44